createdAt,value
2019-02-18T00:02:22.458Z,1.23
2019-02-18T00:04:50.866Z,1.02
2019-02-18T00:07:19.290Z,1.14
2019-02-18T00:09:47.719Z,1.11
2019-02-18T00:12:16.033Z,1.13
2019-02-18T00:14:44.429Z,1.22
2019-02-18T00:17:12.801Z,0.66
2019-02-18T00:19:41.182Z,0.50
2019-02-18T00:22:09.611Z,0.62
2019-02-18T00:24:37.999Z,0.70
2019-02-18T00:27:06.364Z,0.22
2019-02-18T00:29:34.754Z,0.53
2019-02-18T00:32:03.187Z,0.62
2019-02-18T00:34:31.586Z,0.72
2019-02-18T00:37:00.015Z,0.82
2019-02-18T00:39:28.474Z,0.71
2019-02-18T00:41:56.832Z,0.90
2019-02-18T00:44:25.297Z,1.04
2019-02-18T00:46:53.647Z,1.14
2019-02-18T00:49:22.040Z,1.05
2019-02-18T00:51:50.407Z,0.94
2019-02-18T00:54:18.798Z,1.13
2019-02-18T00:56:47.167Z,1.06
2019-02-18T00:59:15.570Z,1.26
2019-02-18T01:01:43.994Z,1.22
2019-02-18T01:04:12.391Z,1.34
2019-02-18T01:06:40.752Z,1.26
2019-02-18T01:09:09.221Z,1.22
2019-02-18T01:11:37.575Z,1.20
2019-02-18T01:14:06.043Z,1.06
2019-02-18T01:16:34.408Z,1.01
2019-02-18T01:19:02.865Z,0.96
2019-02-18T01:21:31.368Z,0.93
2019-02-18T01:23:59.762Z,0.87
2019-02-18T01:26:28.121Z,0.90
2019-02-18T01:28:56.529Z,0.74
2019-02-18T01:31:24.958Z,0.74
2019-02-18T01:33:53.310Z,0.77
2019-02-18T01:36:23.165Z,0.75
2019-02-18T01:38:51.654Z,0.62
2019-02-18T01:41:20.050Z,0.12
2019-02-18T01:43:48.429Z,-0.08
2019-02-18T01:46:16.801Z,0.07
2019-02-18T01:48:45.171Z,-0.22
2019-02-18T01:51:13.576Z,0.11
2019-02-18T01:53:41.946Z,-0.01
2019-02-18T01:56:10.337Z,0.04
2019-02-18T01:58:38.713Z,-0.13
2019-02-18T02:01:07.167Z,-0.10
2019-02-18T02:03:35.605Z,0.05
2019-02-18T02:06:04.067Z,0.11
2019-02-18T02:08:32.487Z,0.03
2019-02-18T02:11:00.884Z,0.13
2019-02-18T02:13:31.415Z,0.27
2019-02-18T02:16:00.926Z,0.21
2019-02-18T02:18:29.381Z,0.12
2019-02-18T02:20:57.847Z,-0.04
2019-02-18T02:23:26.278Z,-0.05
2019-02-18T02:25:54.680Z,-0.01
2019-02-18T02:28:23.033Z,0.08
2019-02-18T02:30:51.500Z,0.20
2019-02-18T02:33:19.860Z,0.24
2019-02-18T02:35:48.247Z,0.16
2019-02-18T02:38:16.683Z,0.07
2019-02-18T02:40:45.141Z,0.15
2019-02-18T02:43:13.586Z,0.18
2019-02-18T02:45:41.945Z,0.24
2019-02-18T02:48:10.486Z,0.01
2019-02-18T02:50:38.922Z,-0.52
2019-02-18T02:53:07.338Z,-0.78
2019-02-18T02:55:35.763Z,-1.00
2019-02-18T02:58:04.231Z,-0.58
2019-02-18T03:00:32.673Z,-0.50
2019-02-18T03:03:01.072Z,-0.63
2019-02-18T03:05:29.504Z,-0.57
2019-02-18T03:07:57.922Z,-0.44
2019-02-18T03:10:26.265Z,-0.64
2019-02-18T03:12:54.735Z,-0.14
2019-02-18T03:15:23.099Z,-0.14
2019-02-18T03:17:51.555Z,-0.07
2019-02-18T03:20:19.991Z,-0.06
2019-02-18T03:22:48.385Z,-0.11
2019-02-18T03:25:24.676Z,-0.20
2019-02-18T03:28:13.335Z,-0.20
2019-02-18T03:30:47.744Z,-0.13
2019-02-18T03:33:21.902Z,-0.32
2019-02-18T03:35:50.243Z,-0.70
2019-02-18T03:38:18.641Z,-0.53
2019-02-18T03:40:47.092Z,-0.45
2019-02-18T03:43:15.483Z,-0.24
2019-02-18T03:45:43.909Z,-0.24
2019-02-18T03:48:12.298Z,-0.19
2019-02-18T03:50:40.655Z,-0.41
2019-02-18T03:53:09.126Z,-0.51
2019-02-18T03:55:37.567Z,-0.28
2019-02-18T03:58:06.032Z,-0.29
2019-02-18T04:00:34.487Z,-0.23
2019-02-18T04:03:02.926Z,-0.18
2019-02-18T04:05:31.510Z,-0.06
2019-02-18T04:07:59.940Z,-0.09
2019-02-18T04:10:28.326Z,-0.09
2019-02-18T04:12:56.687Z,-0.01
2019-02-18T04:15:25.146Z,-0.10
2019-02-18T04:17:53.503Z,-0.22
2019-02-18T04:20:21.896Z,-0.15
2019-02-18T04:22:50.256Z,-0.31
2019-02-18T04:25:18.658Z,-0.41
2019-02-18T04:27:47.020Z,-0.46
2019-02-18T04:30:15.491Z,-0.34
2019-02-18T04:32:43.920Z,-0.28
2019-02-18T04:35:12.318Z,-0.38
2019-02-18T04:37:40.678Z,-0.39
2019-02-18T04:40:09.433Z,-0.24
2019-02-18T04:42:40.158Z,-0.39
2019-02-18T04:45:10.534Z,-0.30
2019-02-18T04:47:42.741Z,-0.38
2019-02-18T04:50:13.210Z,-0.42
2019-02-18T04:52:41.571Z,-0.56
2019-02-18T04:55:11.110Z,-0.73
2019-02-18T04:57:39.546Z,-0.59
2019-02-18T05:00:09.727Z,-0.86
2019-02-18T05:02:38.060Z,-0.86
2019-02-18T05:05:10.927Z,-0.85
2019-02-18T05:07:39.329Z,-0.89
2019-02-18T05:10:12.049Z,-0.94
2019-02-18T05:12:40.408Z,-0.94
2019-02-18T05:15:09.541Z,-0.81
2019-02-18T05:17:37.932Z,-0.88
2019-02-18T05:20:07.454Z,-0.82
2019-02-18T05:22:35.891Z,-0.79
2019-02-18T05:25:05.920Z,-0.96
2019-02-18T05:27:34.292Z,-0.96
2019-02-18T05:30:02.817Z,-0.82
2019-02-18T05:32:31.614Z,-0.88
2019-02-18T05:35:02.426Z,-0.88
2019-02-18T05:37:30.762Z,-0.89
2019-02-18T05:39:59.139Z,-0.98
2019-02-18T05:42:27.571Z,-0.67
2019-02-18T05:44:56.681Z,-0.73
2019-02-18T05:47:25.098Z,-0.73
2019-02-18T05:49:53.734Z,-0.94
2019-02-18T05:52:22.217Z,-0.94
2019-02-18T05:54:50.544Z,-0.89
2019-02-18T05:57:19.013Z,-0.84
2019-02-18T05:59:47.434Z,-0.92
2019-02-18T06:02:16.623Z,-0.87
2019-02-18T06:04:45.108Z,-0.85
2019-02-18T06:07:13.454Z,-0.86
2019-02-18T06:09:41.820Z,-0.91
2019-02-18T06:12:10.278Z,-1.20
2019-02-18T06:14:38.632Z,-1.20
2019-02-18T06:17:07.099Z,-0.91
2019-02-18T06:19:35.459Z,-0.83
2019-02-18T06:22:03.926Z,-0.92
2019-02-18T06:24:32.299Z,-0.99
2019-02-18T06:27:00.690Z,-0.99
2019-02-18T06:29:29.112Z,-1.25
2019-02-18T06:31:57.592Z,-0.99
2019-02-18T06:34:25.932Z,-0.92
2019-02-18T06:36:54.349Z,-0.92
2019-02-18T06:39:22.710Z,-0.92
2019-02-18T06:41:51.125Z,-1.16
2019-02-18T06:44:21.110Z,-0.94
2019-02-18T06:46:54.063Z,-0.94
2019-02-18T06:49:22.568Z,-0.96
2019-02-18T06:51:50.956Z,-1.04
2019-02-18T06:54:19.387Z,-1.04
2019-02-18T06:56:55.520Z,-0.94
2019-02-18T06:59:25.751Z,-0.94
2019-02-18T07:02:01.946Z,-1.06
2019-02-18T07:04:38.026Z,-0.92
2019-02-18T07:07:24.578Z,-0.89
2019-02-18T07:09:54.683Z,-0.89
2019-02-18T07:12:24.729Z,-0.80
2019-02-18T07:14:53.096Z,-0.76
2019-02-18T07:17:21.553Z,-0.64
2019-02-18T07:19:50.001Z,-0.69
2019-02-18T07:22:18.833Z,-0.49
2019-02-18T07:24:47.212Z,-0.49
2019-02-18T07:27:15.571Z,-0.42
2019-02-18T07:29:44.035Z,-0.42
2019-02-18T07:32:12.405Z,-0.25
2019-02-18T07:34:40.804Z,-0.20
2019-02-18T07:37:09.198Z,-0.20
2019-02-18T07:39:37.603Z,-0.29
2019-02-18T07:42:06.058Z,-0.23
2019-02-18T07:44:34.482Z,-0.11
2019-02-18T07:47:02.920Z,-0.09
2019-02-18T07:49:31.319Z,-0.05
2019-02-18T07:51:59.687Z,0.17
2019-02-18T07:54:28.074Z,0.05
2019-02-18T07:56:56.506Z,0.18
2019-02-18T07:59:24.930Z,0.12
2019-02-18T08:01:53.268Z,0.19
2019-02-18T08:04:21.759Z,0.20
2019-02-18T08:06:50.163Z,0.30
2019-02-18T08:09:18.564Z,0.37
2019-02-18T08:11:46.934Z,0.42
2019-02-18T08:14:15.329Z,0.54
2019-02-18T08:16:43.684Z,0.60
2019-02-18T08:19:12.067Z,0.65
2019-02-18T08:21:40.479Z,0.78
2019-02-18T08:24:08.912Z,0.80
2019-02-18T08:26:38.593Z,0.87
2019-02-18T08:29:07.023Z,0.99
2019-02-18T08:31:35.454Z,1.08
2019-02-18T08:34:04.889Z,1.15
2019-02-18T08:36:33.311Z,1.22
2019-02-18T08:39:01.721Z,1.27
2019-02-18T08:41:30.089Z,1.35
2019-02-18T08:43:58.491Z,1.48
2019-02-18T08:46:26.915Z,1.47
2019-02-18T08:48:55.276Z,1.51
2019-02-18T08:51:23.720Z,1.60
2019-02-18T08:53:52.128Z,1.72
2019-02-18T08:56:20.519Z,1.83
2019-02-18T08:58:48.909Z,1.88
2019-02-18T09:01:17.287Z,2.00
2019-02-18T09:03:45.662Z,2.21
2019-02-18T09:06:14.058Z,2.30
2019-02-18T09:08:42.433Z,2.38
2019-02-18T09:11:10.900Z,2.51
2019-02-18T09:13:39.293Z,2.58
2019-02-18T09:16:07.777Z,2.69
2019-02-18T09:18:36.292Z,3.50
2019-02-18T09:21:04.967Z,3.77
2019-02-18T09:23:52.976Z,3.78
2019-02-18T09:26:21.531Z,3.79
2019-02-18T09:28:50.077Z,3.85
2019-02-18T09:31:20.146Z,3.86
2019-02-18T09:33:48.683Z,3.93
2019-02-18T09:36:17.121Z,3.99
2019-02-18T09:38:45.460Z,4.02
2019-02-18T09:41:13.997Z,4.06
2019-02-18T09:43:42.480Z,4.13
2019-02-18T09:46:10.977Z,4.20
2019-02-18T09:48:39.390Z,4.32
2019-02-18T09:51:07.859Z,4.30
2019-02-18T09:53:36.339Z,4.34
2019-02-18T09:56:04.837Z,4.42
2019-02-18T09:58:33.286Z,4.51
2019-02-18T10:01:01.739Z,4.51
2019-02-18T10:03:31.929Z,4.65
2019-02-18T10:06:00.387Z,4.68
2019-02-18T10:08:28.937Z,4.71
2019-02-18T10:10:57.304Z,4.81
2019-02-18T10:13:25.923Z,4.89
2019-02-18T10:15:54.340Z,5.09
2019-02-18T10:18:22.764Z,5.22
2019-02-18T10:20:51.197Z,5.27
2019-02-18T10:23:19.703Z,5.42
2019-02-18T10:25:48.209Z,5.53
2019-02-18T10:28:16.645Z,5.74
2019-02-18T10:30:45.014Z,6.04
2019-02-18T10:33:13.507Z,6.03
2019-02-18T10:35:41.871Z,6.41
2019-02-18T10:38:10.344Z,6.56
2019-02-18T10:40:38.702Z,6.38
2019-02-18T10:43:07.236Z,6.30
2019-02-18T10:45:35.575Z,6.81
2019-02-18T10:48:04.124Z,6.80
2019-02-18T10:50:32.585Z,7.26
2019-02-18T10:53:01.359Z,7.90
2019-02-18T10:55:29.945Z,7.98
2019-02-18T10:57:58.538Z,7.87
2019-02-18T11:00:28.141Z,8.09
2019-02-18T11:02:56.614Z,8.29
2019-02-18T11:05:25.026Z,8.20
2019-02-18T11:07:53.800Z,8.22
2019-02-18T11:10:22.143Z,8.27
2019-02-18T11:12:50.528Z,8.94
2019-02-18T11:15:18.939Z,9.23
2019-02-18T11:17:47.526Z,9.41
2019-02-18T11:20:15.921Z,9.24
2019-02-18T11:22:44.489Z,9.70
2019-02-18T11:25:16.052Z,9.43
2019-02-18T11:27:44.394Z,9.33
2019-02-18T11:30:17.093Z,9.72
2019-02-18T11:32:45.585Z,9.84
2019-02-18T11:35:14.113Z,9.90
2019-02-18T11:37:42.453Z,9.80
2019-02-18T11:40:13.280Z,9.78
2019-02-18T11:42:41.707Z,9.68
2019-02-18T11:45:14.961Z,10.48
2019-02-18T11:47:43.398Z,10.36
2019-02-18T11:50:15.294Z,10.42
2019-02-18T11:52:43.779Z,10.41
2019-02-18T11:55:15.289Z,10.19
2019-02-18T11:57:44.160Z,10.13
2019-02-18T12:00:17.111Z,10.66
2019-02-18T12:02:45.453Z,11.13
2019-02-18T12:05:14.111Z,11.33
2019-02-18T12:07:42.548Z,11.55
2019-02-18T12:10:11.994Z,11.49
2019-02-18T12:12:40.902Z,11.69
2019-02-18T12:15:16.009Z,11.69
2019-02-18T12:17:44.426Z,11.39
2019-02-18T12:20:16.406Z,11.59
2019-02-18T12:22:44.841Z,11.69
2019-02-18T12:25:13.743Z,11.69
2019-02-18T12:27:42.627Z,11.77
2019-02-18T12:30:18.521Z,11.70
2019-02-18T12:32:52.856Z,11.94
2019-02-18T12:35:30.465Z,11.80
2019-02-18T12:37:55.436Z,11.81
2019-02-18T12:40:22.856Z,11.97
2019-02-18T12:42:51.213Z,12.27
2019-02-18T12:45:19.760Z,12.28
2019-02-18T12:47:48.310Z,12.14
2019-02-18T12:50:20.706Z,12.37
2019-02-18T12:52:50.448Z,12.42
2019-02-18T12:55:19.181Z,12.69
2019-02-18T12:57:47.584Z,12.50
2019-02-18T13:00:16.661Z,12.74
2019-02-18T13:02:45.433Z,12.79
2019-02-18T13:05:14.798Z,12.97
2019-02-18T13:07:43.291Z,12.92
2019-02-18T13:10:12.125Z,12.90
2019-02-18T13:12:41.699Z,12.75
2019-02-18T13:15:18.011Z,12.78
2019-02-18T13:17:47.562Z,13.11
2019-02-18T13:20:15.946Z,13.06
2019-02-18T13:22:45.500Z,13.11
2019-02-18T13:25:14.283Z,13.28
2019-02-18T13:27:42.677Z,13.27
2019-02-18T13:30:21.680Z,13.33
2019-02-18T13:32:50.035Z,13.49
2019-02-18T13:35:18.483Z,13.25
2019-02-18T13:37:46.905Z,13.41
2019-02-18T13:40:16.257Z,13.40
2019-02-18T13:42:45.160Z,13.35
2019-02-18T13:45:13.590Z,13.41
2019-02-18T13:47:42.086Z,13.59
2019-02-18T13:50:14.152Z,13.68
2019-02-18T13:52:42.548Z,13.66
2019-02-18T13:55:12.238Z,13.71
2019-02-18T13:57:41.232Z,13.63
2019-02-18T14:00:17.135Z,13.77
2019-02-18T14:02:46.642Z,13.81
2019-02-18T14:05:15.750Z,13.84
2019-02-18T14:07:44.906Z,13.98
2019-02-18T14:10:13.628Z,13.89
2019-02-18T14:12:42.322Z,13.87
2019-02-18T14:15:13.576Z,14.10
2019-02-18T14:17:42.022Z,13.98
2019-02-18T14:20:14.718Z,14.20
2019-02-18T14:22:43.186Z,14.01
2019-02-18T14:25:12.138Z,13.85
2019-02-18T14:27:40.591Z,13.74
2019-02-18T14:30:12.116Z,13.68
2019-02-18T14:32:40.501Z,13.75
2019-02-18T14:35:09.288Z,13.84
2019-02-18T14:37:37.738Z,13.87
2019-02-18T14:40:07.377Z,13.92
2019-02-18T14:42:35.828Z,14.04
2019-02-18T14:45:05.007Z,14.01
2019-02-18T14:47:33.469Z,14.05
2019-02-18T14:50:01.817Z,14.29
2019-02-18T14:52:30.439Z,14.28
2019-02-18T14:54:58.798Z,14.13
2019-02-18T14:57:27.177Z,13.96
2019-02-18T14:59:55.516Z,13.93
2019-02-18T15:02:23.988Z,13.97
2019-02-18T15:04:52.961Z,14.60
2019-02-18T15:07:21.499Z,14.64
2019-02-18T15:09:49.916Z,14.67
2019-02-18T15:12:19.482Z,14.53
2019-02-18T15:14:48.000Z,14.40
2019-02-18T15:17:16.374Z,14.56
2019-02-18T15:19:44.726Z,14.56
2019-02-18T15:22:13.170Z,14.87
2019-02-18T15:24:41.585Z,14.75
2019-02-18T15:27:10.319Z,14.48
2019-02-18T15:29:38.663Z,14.46
2019-02-18T15:32:07.194Z,14.04
2019-02-18T15:34:35.622Z,13.92
2019-02-18T15:37:03.967Z,13.92
2019-02-18T15:39:33.405Z,13.98
2019-02-18T15:42:01.826Z,13.95
2019-02-18T15:44:31.187Z,14.14
2019-02-18T15:46:59.680Z,14.52
2019-02-18T15:49:28.072Z,14.33
2019-02-18T15:51:56.510Z,14.28
2019-02-18T15:54:24.962Z,14.37
2019-02-18T15:56:55.193Z,13.84
2019-02-18T15:59:25.205Z,13.60
2019-02-18T16:01:53.718Z,13.43
2019-02-18T16:04:22.733Z,13.43
2019-02-18T16:06:51.833Z,13.45
2019-02-18T16:09:20.392Z,13.40
2019-02-18T16:11:49.313Z,13.17
2019-02-18T16:14:18.574Z,13.02
2019-02-18T16:16:46.997Z,13.06
2019-02-18T16:19:15.541Z,12.86
2019-02-18T16:21:43.961Z,12.67
2019-02-18T16:24:19.610Z,12.63
2019-02-18T16:26:42.419Z,12.70
2019-02-18T16:29:10.886Z,12.58
2019-02-18T16:31:39.419Z,12.36
2019-02-18T16:34:08.385Z,12.30
2019-02-18T16:36:37.187Z,12.11
2019-02-18T16:39:06.546Z,12.03
2019-02-18T16:41:36.230Z,11.92
2019-02-18T16:44:04.897Z,11.83
2019-02-18T16:46:33.621Z,11.79
2019-02-18T16:49:02.389Z,11.68
2019-02-18T16:51:30.874Z,11.45
2019-02-18T16:54:00.948Z,11.42
2019-02-18T16:56:29.385Z,11.10
2019-02-18T16:58:58.212Z,11.15
2019-02-18T17:01:26.631Z,11.01
2019-02-18T17:03:55.082Z,10.99
2019-02-18T17:06:23.498Z,10.83
2019-02-18T17:08:51.883Z,10.80
2019-02-18T17:11:20.351Z,10.73
2019-02-18T17:13:48.831Z,10.71
2019-02-18T17:16:17.569Z,10.63
2019-02-18T17:18:46.290Z,10.54
2019-02-18T17:21:18.537Z,10.48
2019-02-18T17:23:46.971Z,10.39
2019-02-18T17:26:17.156Z,10.43
2019-02-18T17:28:45.509Z,10.40
2019-02-18T17:31:14.441Z,9.85
2019-02-18T17:33:42.792Z,9.63
2019-02-18T17:36:11.175Z,9.67
2019-02-18T17:38:39.593Z,9.33
2019-02-18T17:41:08.116Z,9.33
2019-02-18T17:43:36.467Z,9.06
2019-02-18T17:46:04.921Z,8.98
2019-02-18T17:48:33.264Z,8.98
2019-02-18T17:51:01.639Z,9.21
2019-02-18T17:53:30.008Z,9.20
2019-02-18T17:55:58.694Z,9.19
2019-02-18T17:58:27.041Z,9.15
2019-02-18T18:00:58.851Z,9.04
2019-02-18T18:03:27.374Z,8.88
2019-02-18T18:05:55.752Z,8.41
2019-02-18T18:08:24.178Z,8.31
2019-02-18T18:10:52.568Z,8.36
2019-02-18T18:13:25.073Z,8.32
2019-02-18T18:15:51.021Z,8.20
2019-02-18T18:18:19.846Z,8.03
2019-02-18T18:20:48.441Z,7.94
2019-02-18T18:23:17.700Z,7.82
2019-02-18T18:25:47.710Z,7.64
2019-02-18T18:28:16.070Z,7.51
2019-02-18T18:30:44.544Z,7.59
2019-02-18T18:33:13.182Z,7.50
2019-02-18T18:35:41.649Z,7.24
2019-02-18T18:38:10.074Z,7.20
2019-02-18T18:40:38.531Z,7.09
2019-02-18T18:43:07.065Z,7.06
2019-02-18T18:45:35.579Z,6.95
2019-02-18T18:48:04.007Z,6.60
2019-02-18T18:50:32.399Z,6.45
2019-02-18T18:53:00.827Z,6.04
2019-02-18T18:55:29.290Z,6.07
2019-02-18T18:57:57.719Z,6.21
2019-02-18T19:00:26.862Z,6.04
2019-02-18T19:02:55.242Z,6.07
2019-02-18T19:05:23.732Z,6.06
2019-02-18T19:07:52.347Z,6.07
2019-02-18T19:10:20.768Z,6.00
2019-02-18T19:12:49.392Z,5.45
2019-02-18T19:15:18.687Z,5.47
2019-02-18T19:17:48.755Z,5.24
2019-02-18T19:20:17.248Z,5.10
2019-02-18T19:22:45.703Z,4.99
2019-02-18T19:25:14.326Z,5.05
2019-02-18T19:27:42.938Z,5.23
2019-02-18T19:30:15.110Z,5.01
2019-02-18T19:32:43.983Z,4.97
2019-02-18T19:35:12.501Z,5.06
2019-02-18T19:37:40.969Z,5.00
2019-02-18T19:40:12.089Z,5.02
2019-02-18T19:42:40.605Z,4.74
2019-02-18T19:45:12.862Z,4.71
2019-02-18T19:47:43.373Z,4.72
2019-02-18T19:50:11.974Z,4.46
2019-02-18T19:52:41.249Z,4.48
2019-02-18T19:55:15.457Z,4.54
2019-02-18T19:57:43.931Z,4.71
2019-02-18T20:00:17.576Z,4.54
2019-02-18T20:02:46.042Z,4.27
2019-02-18T20:05:14.560Z,4.30
2019-02-18T20:07:44.262Z,4.01
2019-02-18T20:10:13.134Z,4.26
2019-02-18T20:12:41.772Z,4.19
2019-02-18T20:15:13.047Z,4.20
2019-02-18T20:17:41.553Z,4.15
2019-02-18T20:20:14.392Z,4.14
2019-02-18T20:22:42.592Z,3.70
2019-02-18T20:25:11.183Z,3.66
2019-02-18T20:27:39.645Z,3.75
2019-02-18T20:30:11.166Z,3.51
2019-02-18T20:32:39.640Z,3.32
2019-02-18T20:35:11.153Z,2.94
2019-02-18T20:37:39.618Z,3.26
2019-02-18T20:40:09.524Z,3.46
2019-02-18T20:42:38.457Z,3.64
2019-02-18T20:45:14.588Z,3.68
2019-02-18T20:47:43.699Z,3.45
2019-02-18T20:50:15.809Z,3.40
2019-02-18T20:52:44.401Z,3.22
2019-02-18T20:55:16.867Z,3.34
2019-02-18T20:57:46.092Z,3.27
2019-02-18T21:00:19.366Z,3.41
2019-02-18T21:02:48.010Z,3.13
2019-02-18T21:05:16.370Z,3.27
2019-02-18T21:07:44.805Z,3.22
2019-02-18T21:10:16.273Z,3.24
2019-02-18T21:12:44.700Z,3.28
2019-02-18T21:15:13.162Z,3.31
2019-02-18T21:17:41.520Z,3.06
2019-02-18T21:20:11.657Z,2.78
2019-02-18T21:22:40.064Z,2.53
2019-02-18T21:25:10.569Z,2.63
2019-02-18T21:27:39.002Z,2.90
2019-02-18T21:30:18.086Z,2.85
2019-02-18T21:32:47.828Z,3.06
2019-02-18T21:35:16.251Z,3.15
2019-02-18T21:37:45.356Z,3.04
2019-02-18T21:40:13.888Z,3.07
2019-02-18T21:42:42.486Z,3.12
2019-02-18T21:45:15.768Z,3.12
2019-02-18T21:47:44.275Z,2.83
2019-02-18T21:50:15.692Z,2.42
2019-02-18T21:52:44.456Z,2.54
2019-02-18T21:55:13.424Z,2.46
2019-02-18T21:57:41.966Z,2.62
2019-02-18T22:00:20.653Z,2.60
2019-02-18T22:02:49.886Z,2.21
2019-02-18T22:05:19.153Z,2.40
2019-02-18T22:07:48.124Z,2.47
2019-02-18T22:10:16.655Z,2.67
2019-02-18T22:12:45.084Z,2.75
2019-02-18T22:15:15.551Z,2.54
2019-02-18T22:17:43.977Z,2.51
2019-02-18T22:20:14.501Z,2.32
2019-02-18T22:22:43.182Z,2.48
2019-02-18T22:25:12.935Z,2.41
2019-02-18T22:27:43.322Z,2.40
2019-02-18T22:30:16.408Z,2.39
2019-02-18T22:32:45.662Z,2.29
2019-02-18T22:35:14.913Z,2.42
2019-02-18T22:37:43.949Z,2.48
2019-02-18T22:40:13.429Z,2.20
2019-02-18T22:42:41.944Z,1.98
2019-02-18T22:45:11.903Z,1.97
2019-02-18T22:47:40.652Z,2.11
2019-02-18T22:50:11.094Z,2.16
2019-02-18T22:52:39.801Z,2.00
2019-02-18T22:55:09.937Z,1.62
2019-02-18T22:57:38.713Z,1.63
2019-02-18T23:00:12.941Z,1.63
2019-02-18T23:02:44.787Z,1.64
2019-02-18T23:05:14.207Z,1.84
2019-02-18T23:07:43.074Z,1.73
2019-02-18T23:10:12.566Z,1.54
2019-02-18T23:12:41.402Z,1.42
2019-02-18T23:15:10.129Z,1.64
2019-02-18T23:17:38.698Z,1.73
2019-02-18T23:20:10.188Z,1.73
2019-02-18T23:22:39.369Z,1.87
2019-02-18T23:25:08.021Z,1.73
2019-02-18T23:27:37.387Z,1.48
2019-02-18T23:30:06.820Z,1.51
2019-02-18T23:32:35.888Z,1.51
2019-02-18T23:35:05.763Z,1.55
2019-02-18T23:37:34.745Z,1.74
2019-02-18T23:40:03.409Z,1.80
2019-02-18T23:42:32.284Z,1.92
2019-02-18T23:45:00.808Z,1.68
2019-02-18T23:47:29.378Z,1.49
2019-02-18T23:50:00.753Z,1.32
2019-02-18T23:52:29.337Z,1.52
2019-02-18T23:54:57.702Z,0.97
2019-02-18T23:57:26.525Z,1.27
2019-02-18T23:59:55.078Z,1.06
